sensor_id;sensor_type;location;lat;lon;timestamp;P1;durP1;ratioP1;P2;durP2;ratioP2
10191;SDS011;17580;50.850;4.504;2023-04-16T00:00:12;4.63;;;2.27;;
10191;SDS011;17580;50.850;4.504;2023-04-16T00:02:40;2.83;;;2.07;;
10191;SDS011;17580;50.850;4.504;2023-04-16T00:05:07;6.23;;;2.33;;
10191;SDS011;17580;50.850;4.504;2023-04-16T00:07:34;4.33;;;2.07;;
10191;SDS011;17580;50.850;4.504;2023-04-16T00:10:03;4.47;;;2.23;;
10191;SDS011;17580;50.850;4.504;2023-04-16T00:12:30;3.57;;;1.70;;
10191;SDS011;17580;50.850;4.504;2023-04-16T00:14:57;7.23;;;2.27;;
10191;SDS011;17580;50.850;4.504;2023-04-16T00:17:24;3.63;;;1.80;;
10191;SDS011;17580;50.850;4.504;2023-04-16T00:19:51;5.53;;;2.10;;
10191;SDS011;17580;50.850;4.504;2023-04-16T00:22:18;2.47;;;1.70;;
10191;SDS011;17580;50.850;4.504;2023-04-16T00:24:45;3.63;;;1.90;;
10191;SDS011;17580;50.850;4.504;2023-04-16T00:27:14;2.63;;;2.20;;
10191;SDS011;17580;50.850;4.504;2023-04-16T00:29:41;4.67;;;2.17;;
10191;SDS011;17580;50.850;4.504;2023-04-16T00:32:08;6.57;;;2.43;;
10191;SDS011;17580;50.850;4.504;2023-04-16T00:34:34;3.17;;;2.17;;
10191;SDS011;17580;50.850;4.504;2023-04-16T00:37:01;3.27;;;2.50;;
10191;SDS011;17580;50.850;4.504;2023-04-16T00:39:28;5.67;;;2.60;;
10191;SDS011;17580;50.850;4.504;2023-04-16T00:41:55;4.23;;;2.63;;
10191;SDS011;17580;50.850;4.504;2023-04-16T00:44:24;4.40;;;2.27;;
10191;SDS011;17580;50.850;4.504;2023-04-16T00:46:51;5.67;;;2.47;;
10191;SDS011;17580;50.850;4.504;2023-04-16T00:49:18;5.03;;;2.37;;
10191;SDS011;17580;50.850;4.504;2023-04-16T00:51:46;7.27;;;2.23;;
10191;SDS011;17580;50.850;4.504;2023-04-16T00:54:13;5.00;;;2.60;;
10191;SDS011;17580;50.850;4.504;2023-04-16T00:56:40;3.23;;;2.00;;
10191;SDS011;17580;50.850;4.504;2023-04-16T00:59:08;2.63;;;2.33;;
10191;SDS011;17580;50.850;4.504;2023-04-16T01:01:36;5.83;;;2.17;;
10191;SDS011;17580;50.850;4.504;2023-04-16T01:04:03;5.97;;;2.20;;
10191;SDS011;17580;50.850;4.504;2023-04-16T01:06:31;6.47;;;2.57;;
10191;SDS011;17580;50.850;4.504;2023-04-16T01:08:58;3.73;;;1.87;;
10191;SDS011;17580;50.850;4.504;2023-04-16T01:11:25;3.90;;;2.33;;
10191;SDS011;17580;50.850;4.504;2023-04-16T01:13:52;3.50;;;2.47;;
10191;SDS011;17580;50.850;4.504;2023-04-16T01:16:19;4.73;;;2.30;;
10191;SDS011;17580;50.850;4.504;2023-04-16T01:18:48;2.97;;;2.23;;
10191;SDS011;17580;50.850;4.504;2023-04-16T01:21:16;2.50;;;2.30;;
10191;SDS011;17580;50.850;4.504;2023-04-16T01:23:43;4.13;;;3.10;;
10191;SDS011;17580;50.850;4.504;2023-04-16T01:26:10;4.70;;;2.60;;
10191;SDS011;17580;50.850;4.504;2023-04-16T01:28:37;4.37;;;2.87;;
10191;SDS011;17580;50.850;4.504;2023-04-16T01:31:04;3.73;;;2.83;;
10191;SDS011;17580;50.850;4.504;2023-04-16T01:33:31;5.23;;;2.87;;
10191;SDS011;17580;50.850;4.504;2023-04-16T01:35:58;7.43;;;2.40;;
10191;SDS011;17580;50.850;4.504;2023-04-16T01:38:26;5.40;;;2.70;;
10191;SDS011;17580;50.850;4.504;2023-04-16T01:40:54;2.30;;;2.10;;
10191;SDS011;17580;50.850;4.504;2023-04-16T01:43:23;3.83;;;2.23;;
10191;SDS011;17580;50.850;4.504;2023-04-16T01:45:50;6.80;;;2.10;;
10191;SDS011;17580;50.850;4.504;2023-04-16T01:48:19;2.40;;;2.20;;
10191;SDS011;17580;50.850;4.504;2023-04-16T01:50:46;3.33;;;2.23;;
10191;SDS011;17580;50.850;4.504;2023-04-16T01:53:13;2.87;;;2.10;;
10191;SDS011;17580;50.850;4.504;2023-04-16T01:55:41;5.53;;;2.30;;
10191;SDS011;17580;50.850;4.504;2023-04-16T01:58:08;2.57;;;1.70;;
10191;SDS011;17580;50.850;4.504;2023-04-16T02:00:37;3.10;;;1.40;;
10191;SDS011;17580;50.850;4.504;2023-04-16T02:03:04;3.43;;;1.70;;
10191;SDS011;17580;50.850;4.504;2023-04-16T02:05:31;3.00;;;1.73;;
10191;SDS011;17580;50.850;4.504;2023-04-16T02:07:58;3.37;;;1.50;;
10191;SDS011;17580;50.850;4.504;2023-04-16T02:10:25;5.97;;;2.50;;
10191;SDS011;17580;50.850;4.504;2023-04-16T02:12:54;1.90;;;1.77;;
10191;SDS011;17580;50.850;4.504;2023-04-16T02:15:21;3.10;;;1.83;;
10191;SDS011;17580;50.850;4.504;2023-04-16T02:17:49;8.20;;;2.53;;
10191;SDS011;17580;50.850;4.504;2023-04-16T02:20:20;3.07;;;1.93;;
10191;SDS011;17580;50.850;4.504;2023-04-16T02:22:47;2.27;;;1.40;;
10191;SDS011;17580;50.850;4.504;2023-04-16T02:25:14;1.50;;;1.40;;
10191;SDS011;17580;50.850;4.504;2023-04-16T02:27:41;4.77;;;1.70;;
10191;SDS011;17580;50.850;4.504;2023-04-16T02:30:10;3.10;;;1.70;;
10191;SDS011;17580;50.850;4.504;2023-04-16T02:32:37;2.33;;;1.60;;
10191;SDS011;17580;50.850;4.504;2023-04-16T02:35:05;3.13;;;2.03;;
10191;SDS011;17580;50.850;4.504;2023-04-16T02:37:32;3.23;;;1.90;;
10191;SDS011;17580;50.850;4.504;2023-04-16T02:39:59;3.60;;;2.80;;
10191;SDS011;17580;50.850;4.504;2023-04-16T02:42:26;2.20;;;2.00;;
10191;SDS011;17580;50.850;4.504;2023-04-16T02:44:53;1.67;;;1.57;;
10191;SDS011;17580;50.850;4.504;2023-04-16T02:47:22;2.83;;;2.00;;
10191;SDS011;17580;50.850;4.504;2023-04-16T02:49:48;2.33;;;1.60;;
10191;SDS011;17580;50.850;4.504;2023-04-16T02:52:15;2.70;;;1.90;;
10191;SDS011;17580;50.850;4.504;2023-04-16T02:54:42;2.63;;;1.50;;
10191;SDS011;17580;50.850;4.504;2023-04-16T02:57:09;3.23;;;1.60;;
10191;SDS011;17580;50.850;4.504;2023-04-16T02:59:36;4.17;;;1.70;;
10191;SDS011;17580;50.850;4.504;2023-04-16T03:02:03;3.57;;;1.57;;
10191;SDS011;17580;50.850;4.504;2023-04-16T03:04:32;2.37;;;2.03;;
10191;SDS011;17580;50.850;4.504;2023-04-16T03:06:59;2.70;;;1.70;;
10191;SDS011;17580;50.850;4.504;2023-04-16T03:09:26;1.80;;;1.70;;
10191;SDS011;17580;50.850;4.504;2023-04-16T03:11:53;5.73;;;2.40;;
10191;SDS011;17580;50.850;4.504;2023-04-16T03:14:20;3.60;;;2.57;;
10191;SDS011;17580;50.850;4.504;2023-04-16T03:16:47;5.17;;;2.30;;
10191;SDS011;17580;50.850;4.504;2023-04-16T03:19:15;3.17;;;2.23;;
10191;SDS011;17580;50.850;4.504;2023-04-16T03:21:43;2.50;;;2.37;;
10191;SDS011;17580;50.850;4.504;2023-04-16T03:24:10;2.83;;;2.30;;
10191;SDS011;17580;50.850;4.504;2023-04-16T03:26:37;4.03;;;2.37;;
10191;SDS011;17580;50.850;4.504;2023-04-16T03:29:04;3.30;;;3.00;;
10191;SDS011;17580;50.850;4.504;2023-04-16T03:31:31;4.87;;;2.90;;
10191;SDS011;17580;50.850;4.504;2023-04-16T03:33:58;3.33;;;3.00;;
10191;SDS011;17580;50.850;4.504;2023-04-16T03:36:25;5.73;;;3.00;;
10191;SDS011;17580;50.850;4.504;2023-04-16T03:38:53;3.40;;;3.10;;
10191;SDS011;17580;50.850;4.504;2023-04-16T03:41:20;4.03;;;3.63;;
10191;SDS011;17580;50.850;4.504;2023-04-16T03:43:47;4.43;;;3.37;;
10191;SDS011;17580;50.850;4.504;2023-04-16T03:46:14;4.07;;;3.40;;
10191;SDS011;17580;50.850;4.504;2023-04-16T03:48:41;2.93;;;2.73;;
10191;SDS011;17580;50.850;4.504;2023-04-16T03:51:08;5.37;;;3.43;;
10191;SDS011;17580;50.850;4.504;2023-04-16T03:53:35;4.90;;;2.97;;
10191;SDS011;17580;50.850;4.504;2023-04-16T03:56:04;4.47;;;3.13;;
10191;SDS011;17580;50.850;4.504;2023-04-16T03:58:31;4.13;;;3.73;;
10191;SDS011;17580;50.850;4.504;2023-04-16T04:00:58;3.27;;;3.00;;
10191;SDS011;17580;50.850;4.504;2023-04-16T04:03:25;5.70;;;3.00;;
10191;SDS011;17580;50.850;4.504;2023-04-16T04:05:52;3.03;;;2.73;;
10191;SDS011;17580;50.850;4.504;2023-04-16T04:08:19;2.50;;;2.17;;
10191;SDS011;17580;50.850;4.504;2023-04-16T04:10:46;3.03;;;2.73;;
10191;SDS011;17580;50.850;4.504;2023-04-16T04:13:14;2.63;;;2.43;;
10191;SDS011;17580;50.850;4.504;2023-04-16T04:15:41;3.73;;;2.50;;
10191;SDS011;17580;50.850;4.504;2023-04-16T04:18:09;3.93;;;2.90;;
10191;SDS011;17580;50.850;4.504;2023-04-16T04:20:37;4.30;;;2.33;;
10191;SDS011;17580;50.850;4.504;2023-04-16T04:23:05;2.87;;;2.67;;
10191;SDS011;17580;50.850;4.504;2023-04-16T04:25:32;3.73;;;2.50;;
10191;SDS011;17580;50.850;4.504;2023-04-16T04:28:00;4.33;;;2.47;;
10191;SDS011;17580;50.850;4.504;2023-04-16T04:30:28;2.73;;;2.53;;
10191;SDS011;17580;50.850;4.504;2023-04-16T04:32:55;5.03;;;2.57;;
10191;SDS011;17580;50.850;4.504;2023-04-16T04:35:22;3.97;;;2.37;;
10191;SDS011;17580;50.850;4.504;2023-04-16T04:37:49;2.57;;;2.37;;
10191;SDS011;17580;50.850;4.504;2023-04-16T04:40:16;2.90;;;2.60;;
10191;SDS011;17580;50.850;4.504;2023-04-16T04:42:43;2.63;;;2.43;;
10191;SDS011;17580;50.850;4.504;2023-04-16T04:45:10;4.03;;;2.77;;
10191;SDS011;17580;50.850;4.504;2023-04-16T04:47:39;3.77;;;3.23;;
10191;SDS011;17580;50.850;4.504;2023-04-16T04:50:06;4.47;;;2.90;;
10191;SDS011;17580;50.850;4.504;2023-04-16T04:52:33;3.90;;;3.20;;
10191;SDS011;17580;50.850;4.504;2023-04-16T04:55:01;4.10;;;3.37;;
10191;SDS011;17580;50.850;4.504;2023-04-16T04:57:28;3.40;;;3.10;;
10191;SDS011;17580;50.850;4.504;2023-04-16T04:59:54;3.40;;;3.10;;
10191;SDS011;17580;50.850;4.504;2023-04-16T05:02:21;3.37;;;3.07;;
10191;SDS011;17580;50.850;4.504;2023-04-16T05:04:50;3.70;;;3.47;;
10191;SDS011;17580;50.850;4.504;2023-04-16T05:07:17;4.70;;;3.67;;
10191;SDS011;17580;50.850;4.504;2023-04-16T05:09:44;3.97;;;3.23;;
10191;SDS011;17580;50.850;4.504;2023-04-16T05:12:11;4.23;;;3.90;;
10191;SDS011;17580;50.850;4.504;2023-04-16T05:14:38;3.83;;;3.30;;
10191;SDS011;17580;50.850;4.504;2023-04-16T05:17:05;4.77;;;3.60;;
10191;SDS011;17580;50.850;4.504;2023-04-16T05:19:32;4.90;;;3.50;;
10191;SDS011;17580;50.850;4.504;2023-04-16T05:22:01;4.13;;;3.60;;
10191;SDS011;17580;50.850;4.504;2023-04-16T05:24:28;4.40;;;3.67;;
10191;SDS011;17580;50.850;4.504;2023-04-16T05:26:55;3.53;;;3.23;;
10191;SDS011;17580;50.850;4.504;2023-04-16T05:29:22;9.37;;;4.00;;
10191;SDS011;17580;50.850;4.504;2023-04-16T05:31:50;5.13;;;3.73;;
10191;SDS011;17580;50.850;4.504;2023-04-16T05:34:17;6.43;;;4.70;;
10191;SDS011;17580;50.850;4.504;2023-04-16T05:36:44;8.10;;;3.77;;
10191;SDS011;17580;50.850;4.504;2023-04-16T05:39:12;3.90;;;3.10;;
10191;SDS011;17580;50.850;4.504;2023-04-16T05:41:39;4.83;;;3.43;;
10191;SDS011;17580;50.850;4.504;2023-04-16T05:44:06;3.10;;;2.90;;
10191;SDS011;17580;50.850;4.504;2023-04-16T05:46:33;5.40;;;3.57;;
10191;SDS011;17580;50.850;4.504;2023-04-16T05:49:00;6.30;;;3.00;;
10191;SDS011;17580;50.850;4.504;2023-04-16T05:51:27;3.87;;;2.53;;
10191;SDS011;17580;50.850;4.504;2023-04-16T05:53:54;2.50;;;2.30;;
10191;SDS011;17580;50.850;4.504;2023-04-16T05:56:22;2.13;;;2.03;;
10191;SDS011;17580;50.850;4.504;2023-04-16T05:58:50;7.03;;;2.43;;
10191;SDS011;17580;50.850;4.504;2023-04-16T06:01:17;2.73;;;2.47;;
10191;SDS011;17580;50.850;4.504;2023-04-16T06:03:44;7.33;;;2.17;;
10191;SDS011;17580;50.850;4.504;2023-04-16T06:06:11;3.90;;;2.43;;
10191;SDS011;17580;50.850;4.504;2023-04-16T06:08:37;2.43;;;2.23;;
10191;SDS011;17580;50.850;4.504;2023-04-16T06:11:04;5.43;;;2.30;;
10191;SDS011;17580;50.850;4.504;2023-04-16T06:13:33;4.83;;;2.53;;
10191;SDS011;17580;50.850;4.504;2023-04-16T06:16:00;4.50;;;2.60;;
10191;SDS011;17580;50.850;4.504;2023-04-16T06:18:27;6.27;;;3.03;;
10191;SDS011;17580;50.850;4.504;2023-04-16T06:20:54;3.07;;;2.33;;
10191;SDS011;17580;50.850;4.504;2023-04-16T06:23:22;4.03;;;2.43;;
10191;SDS011;17580;50.850;4.504;2023-04-16T06:25:49;2.53;;;2.30;;
10191;SDS011;17580;50.850;4.504;2023-04-16T06:28:16;5.60;;;3.23;;
10191;SDS011;17580;50.850;4.504;2023-04-16T06:30:45;8.37;;;3.63;;
10191;SDS011;17580;50.850;4.504;2023-04-16T06:33:12;3.50;;;3.20;;
10191;SDS011;17580;50.850;4.504;2023-04-16T06:35:39;4.17;;;3.53;;
10191;SDS011;17580;50.850;4.504;2023-04-16T06:38:06;4.47;;;3.10;;
10191;SDS011;17580;50.850;4.504;2023-04-16T06:40:33;3.93;;;2.50;;
10191;SDS011;17580;50.850;4.504;2023-04-16T06:43:01;3.23;;;2.93;;
10191;SDS011;17580;50.850;4.504;2023-04-16T06:45:28;3.40;;;3.10;;
10191;SDS011;17580;50.850;4.504;2023-04-16T06:47:57;6.80;;;3.30;;
10191;SDS011;17580;50.850;4.504;2023-04-16T06:50:24;3.90;;;3.33;;
10191;SDS011;17580;50.850;4.504;2023-04-16T06:52:52;4.13;;;3.03;;
10191;SDS011;17580;50.850;4.504;2023-04-16T06:55:19;3.83;;;3.23;;
10191;SDS011;17580;50.850;4.504;2023-04-16T06:57:46;5.93;;;3.10;;
10191;SDS011;17580;50.850;4.504;2023-04-16T07:00:13;3.73;;;2.90;;
10191;SDS011;17580;50.850;4.504;2023-04-16T07:02:40;4.67;;;2.90;;
10191;SDS011;17580;50.850;4.504;2023-04-16T07:05:09;4.20;;;2.87;;
10191;SDS011;17580;50.850;4.504;2023-04-16T07:07:36;4.63;;;2.80;;
10191;SDS011;17580;50.850;4.504;2023-04-16T07:10:03;4.00;;;3.10;;
10191;SDS011;17580;50.850;4.504;2023-04-16T07:12:30;4.27;;;3.00;;
10191;SDS011;17580;50.850;4.504;2023-04-16T07:14:58;3.47;;;3.17;;
10191;SDS011;17580;50.850;4.504;2023-04-16T07:17:25;4.50;;;3.00;;
10191;SDS011;17580;50.850;4.504;2023-04-16T07:19:52;3.37;;;3.07;;
10191;SDS011;17580;50.850;4.504;2023-04-16T07:22:20;4.37;;;3.20;;
10191;SDS011;17580;50.850;4.504;2023-04-16T07:24:47;5.00;;;4.10;;
10191;SDS011;17580;50.850;4.504;2023-04-16T07:27:14;4.33;;;3.93;;
10191;SDS011;17580;50.850;4.504;2023-04-16T07:29:41;6.07;;;3.87;;
10191;SDS011;17580;50.850;4.504;2023-04-16T07:32:10;10.00;;;4.37;;
10191;SDS011;17580;50.850;4.504;2023-04-16T07:34:37;6.47;;;4.00;;
10191;SDS011;17580;50.850;4.504;2023-04-16T07:37:04;6.60;;;3.73;;
10191;SDS011;17580;50.850;4.504;2023-04-16T07:39:32;6.00;;;4.20;;
10191;SDS011;17580;50.850;4.504;2023-04-16T07:41:59;8.17;;;4.43;;
10191;SDS011;17580;50.850;4.504;2023-04-16T07:44:26;4.97;;;4.53;;
10191;SDS011;17580;50.850;4.504;2023-04-16T07:46:53;6.33;;;4.93;;
10191;SDS011;17580;50.850;4.504;2023-04-16T07:49:20;8.63;;;5.10;;
10191;SDS011;17580;50.850;4.504;2023-04-16T07:51:47;5.00;;;4.57;;
10191;SDS011;17580;50.850;4.504;2023-04-16T07:54:14;5.37;;;4.33;;
10191;SDS011;17580;50.850;4.504;2023-04-16T07:56:43;9.23;;;4.80;;
10191;SDS011;17580;50.850;4.504;2023-04-16T07:59:10;8.60;;;5.43;;
10191;SDS011;17580;50.850;4.504;2023-04-16T08:01:37;6.37;;;5.37;;
10191;SDS011;17580;50.850;4.504;2023-04-16T08:04:04;8.90;;;5.30;;
10191;SDS011;17580;50.850;4.504;2023-04-16T08:06:31;9.70;;;5.50;;
10191;SDS011;17580;50.850;4.504;2023-04-16T08:08:58;14.40;;;5.40;;
10191;SDS011;17580;50.850;4.504;2023-04-16T08:11:25;6.17;;;5.17;;
10191;SDS011;17580;50.850;4.504;2023-04-16T08:13:53;7.63;;;4.83;;
10191;SDS011;17580;50.850;4.504;2023-04-16T08:16:20;5.03;;;4.37;;
10191;SDS011;17580;50.850;4.504;2023-04-16T08:18:47;11.70;;;4.70;;
10191;SDS011;17580;50.850;4.504;2023-04-16T08:21:14;7.73;;;5.33;;
10191;SDS011;17580;50.850;4.504;2023-04-16T08:23:41;8.00;;;5.93;;
10191;SDS011;17580;50.850;4.504;2023-04-16T08:26:08;7.63;;;5.93;;
10191;SDS011;17580;50.850;4.504;2023-04-16T08:28:35;11.53;;;6.97;;
10191;SDS011;17580;50.850;4.504;2023-04-16T08:31:04;18.53;;;7.50;;
10191;SDS011;17580;50.850;4.504;2023-04-16T08:33:31;11.17;;;7.50;;
10191;SDS011;17580;50.850;4.504;2023-04-16T08:35:58;6.87;;;5.77;;
10191;SDS011;17580;50.850;4.504;2023-04-16T08:38:25;9.20;;;6.70;;
10191;SDS011;17580;50.850;4.504;2023-04-16T08:40:51;10.13;;;7.53;;
10191;SDS011;17580;50.850;4.504;2023-04-16T08:43:20;12.60;;;7.60;;
10191;SDS011;17580;50.850;4.504;2023-04-16T08:45:49;9.13;;;7.53;;
10191;SDS011;17580;50.850;4.504;2023-04-16T08:48:21;8.43;;;6.90;;
10191;SDS011;17580;50.850;4.504;2023-04-16T08:50:51;9.00;;;7.03;;
10191;SDS011;17580;50.850;4.504;2023-04-16T08:53:18;15.27;;;7.10;;
10191;SDS011;17580;50.850;4.504;2023-04-16T08:55:52;8.50;;;6.10;;
10191;SDS011;17580;50.850;4.504;2023-04-16T08:58:21;10.20;;;6.00;;
10191;SDS011;17580;50.850;4.504;2023-04-16T09:00:48;11.27;;;7.47;;
10191;SDS011;17580;50.850;4.504;2023-04-16T09:03:15;16.23;;;8.10;;
10191;SDS011;17580;50.850;4.504;2023-04-16T09:05:46;21.07;;;8.53;;
10191;SDS011;17580;50.850;4.504;2023-04-16T09:08:15;11.23;;;6.93;;
10191;SDS011;17580;50.850;4.504;2023-04-16T09:10:43;12.13;;;7.10;;
10191;SDS011;17580;50.850;4.504;2023-04-16T09:13:10;10.90;;;6.67;;
10191;SDS011;17580;50.850;4.504;2023-04-16T09:15:40;14.33;;;6.83;;
10191;SDS011;17580;50.850;4.504;2023-04-16T09:18:08;9.53;;;7.77;;
10191;SDS011;17580;50.850;4.504;2023-04-16T09:20:36;10.50;;;7.53;;
10191;SDS011;17580;50.850;4.504;2023-04-16T09:23:04;18.33;;;8.40;;
10191;SDS011;17580;50.850;4.504;2023-04-16T09:25:32;14.13;;;8.17;;
10191;SDS011;17580;50.850;4.504;2023-04-16T09:27:59;17.47;;;9.03;;
10191;SDS011;17580;50.850;4.504;2023-04-16T09:30:26;13.40;;;8.27;;
10191;SDS011;17580;50.850;4.504;2023-04-16T09:33:11;9.67;;;7.70;;
10191;SDS011;17580;50.850;4.504;2023-04-16T09:35:44;9.43;;;6.77;;
10191;SDS011;17580;50.850;4.504;2023-04-16T09:38:13;10.67;;;7.17;;
10191;SDS011;17580;50.850;4.504;2023-04-16T09:40:40;14.17;;;7.13;;
10191;SDS011;17580;50.850;4.504;2023-04-16T09:43:10;10.10;;;7.30;;
10191;SDS011;17580;50.850;4.504;2023-04-16T09:45:47;12.57;;;6.83;;
10191;SDS011;17580;50.850;4.504;2023-04-16T09:48:15;9.53;;;6.83;;
10191;SDS011;17580;50.850;4.504;2023-04-16T09:50:53;10.47;;;7.47;;
10191;SDS011;17580;50.850;4.504;2023-04-16T09:53:23;11.73;;;7.00;;
10191;SDS011;17580;50.850;4.504;2023-04-16T09:55:51;8.87;;;6.40;;
10191;SDS011;17580;50.850;4.504;2023-04-16T09:58:18;15.50;;;8.73;;
10191;SDS011;17580;50.850;4.504;2023-04-16T10:00:45;8.23;;;6.43;;
10191;SDS011;17580;50.850;4.504;2023-04-16T10:03:12;12.07;;;7.87;;
10191;SDS011;17580;50.850;4.504;2023-04-16T10:05:39;17.37;;;8.27;;
10191;SDS011;17580;50.850;4.504;2023-04-16T10:08:10;15.27;;;8.03;;
10191;SDS011;17580;50.850;4.504;2023-04-16T10:10:40;12.63;;;6.97;;
10191;SDS011;17580;50.850;4.504;2023-04-16T10:13:07;13.07;;;7.33;;
10191;SDS011;17580;50.850;4.504;2023-04-16T10:15:34;10.80;;;7.17;;
10191;SDS011;17580;50.850;4.504;2023-04-16T10:18:02;11.17;;;6.50;;
10191;SDS011;17580;50.850;4.504;2023-04-16T10:20:30;12.83;;;7.33;;
10191;SDS011;17580;50.850;4.504;2023-04-16T10:22:57;11.17;;;6.63;;
10191;SDS011;17580;50.850;4.504;2023-04-16T10:25:24;10.83;;;6.40;;
10191;SDS011;17580;50.850;4.504;2023-04-16T10:27:54;6.97;;;5.60;;
10191;SDS011;17580;50.850;4.504;2023-04-16T10:30:23;12.43;;;5.90;;
10191;SDS011;17580;50.850;4.504;2023-04-16T10:32:52;10.70;;;7.10;;
10191;SDS011;17580;50.850;4.504;2023-04-16T10:35:19;14.33;;;5.63;;
10191;SDS011;17580;50.850;4.504;2023-04-16T10:37:46;10.00;;;5.87;;
10191;SDS011;17580;50.850;4.504;2023-04-16T10:40:22;14.77;;;6.90;;
10191;SDS011;17580;50.850;4.504;2023-04-16T10:42:58;10.33;;;6.80;;
10191;SDS011;17580;50.850;4.504;2023-04-16T10:45:26;6.70;;;6.03;;
10191;SDS011;17580;50.850;4.504;2023-04-16T10:47:56;10.50;;;6.50;;
10191;SDS011;17580;50.850;4.504;2023-04-16T10:50:23;17.13;;;7.53;;
10191;SDS011;17580;50.850;4.504;2023-04-16T10:55:57;10.40;;;6.63;;
10191;SDS011;17580;50.850;4.504;2023-04-16T10:58:36;14.90;;;8.23;;
10191;SDS011;17580;50.850;4.504;2023-04-16T11:01:10;9.03;;;6.23;;
10191;SDS011;17580;50.850;4.504;2023-04-16T11:03:45;17.93;;;8.50;;
10191;SDS011;17580;50.850;4.504;2023-04-16T11:06:13;13.93;;;7.10;;
10191;SDS011;17580;50.850;4.504;2023-04-16T11:08:42;10.33;;;7.07;;
10191;SDS011;17580;50.850;4.504;2023-04-16T11:11:11;8.83;;;6.97;;
10191;SDS011;17580;50.850;4.504;2023-04-16T11:13:40;16.23;;;9.33;;
10191;SDS011;17580;50.850;4.504;2023-04-16T11:16:09;13.03;;;8.00;;
10191;SDS011;17580;50.850;4.504;2023-04-16T11:18:36;18.30;;;8.63;;
10191;SDS011;17580;50.850;4.504;2023-04-16T11:21:06;12.30;;;7.10;;
10191;SDS011;17580;50.850;4.504;2023-04-16T11:23:44;11.87;;;7.63;;
10191;SDS011;17580;50.850;4.504;2023-04-16T11:26:19;14.77;;;7.53;;
10191;SDS011;17580;50.850;4.504;2023-04-16T11:28:51;21.90;;;10.47;;
10191;SDS011;17580;50.850;4.504;2023-04-16T11:31:19;17.93;;;9.23;;
10191;SDS011;17580;50.850;4.504;2023-04-16T11:33:47;14.87;;;7.63;;
10191;SDS011;17580;50.850;4.504;2023-04-16T11:36:14;14.47;;;7.73;;
10191;SDS011;17580;50.850;4.504;2023-04-16T11:38:41;15.47;;;7.00;;
10191;SDS011;17580;50.850;4.504;2023-04-16T11:41:08;9.63;;;6.87;;
10191;SDS011;17580;50.850;4.504;2023-04-16T11:43:36;27.60;;;12.90;;
10191;SDS011;17580;50.850;4.504;2023-04-16T11:46:05;24.37;;;11.43;;
10191;SDS011;17580;50.850;4.504;2023-04-16T11:48:45;15.47;;;7.93;;
10191;SDS011;17580;50.850;4.504;2023-04-16T11:51:13;12.93;;;7.77;;
10191;SDS011;17580;50.850;4.504;2023-04-16T11:53:44;17.87;;;9.07;;
10191;SDS011;17580;50.850;4.504;2023-04-16T11:56:12;15.13;;;7.63;;
10191;SDS011;17580;50.850;4.504;2023-04-16T11:58:39;16.07;;;8.97;;
10191;SDS011;17580;50.850;4.504;2023-04-16T12:01:08;13.17;;;8.40;;
10191;SDS011;17580;50.850;4.504;2023-04-16T12:03:36;15.20;;;9.93;;
10191;SDS011;17580;50.850;4.504;2023-04-16T12:06:07;13.67;;;8.27;;
10191;SDS011;17580;50.850;4.504;2023-04-16T12:08:35;12.70;;;9.50;;
10191;SDS011;17580;50.850;4.504;2023-04-16T12:11:02;18.17;;;10.00;;
10191;SDS011;17580;50.850;4.504;2023-04-16T12:13:29;12.37;;;7.10;;
10191;SDS011;17580;50.850;4.504;2023-04-16T12:16:06;16.47;;;9.00;;
10191;SDS011;17580;50.850;4.504;2023-04-16T12:19:00;17.30;;;8.57;;
10191;SDS011;17580;50.850;4.504;2023-04-16T12:21:37;14.17;;;7.60;;
10191;SDS011;17580;50.850;4.504;2023-04-16T12:24:05;10.77;;;7.20;;
10191;SDS011;17580;50.850;4.504;2023-04-16T12:26:36;11.13;;;9.00;;
10191;SDS011;17580;50.850;4.504;2023-04-16T12:29:17;11.70;;;8.13;;
10191;SDS011;17580;50.850;4.504;2023-04-16T12:31:47;11.67;;;9.57;;
10191;SDS011;17580;50.850;4.504;2023-04-16T12:34:15;12.27;;;8.57;;
10191;SDS011;17580;50.850;4.504;2023-04-16T12:36:43;16.73;;;10.07;;
10191;SDS011;17580;50.850;4.504;2023-04-16T12:39:10;14.17;;;9.97;;
10191;SDS011;17580;50.850;4.504;2023-04-16T12:41:39;13.97;;;9.73;;
10191;SDS011;17580;50.850;4.504;2023-04-16T12:44:07;14.63;;;8.50;;
10191;SDS011;17580;50.850;4.504;2023-04-16T12:46:36;13.43;;;9.73;;
10191;SDS011;17580;50.850;4.504;2023-04-16T12:49:05;13.43;;;8.67;;
10191;SDS011;17580;50.850;4.504;2023-04-16T12:51:32;13.50;;;10.13;;
10191;SDS011;17580;50.850;4.504;2023-04-16T12:53:59;13.73;;;10.37;;
10191;SDS011;17580;50.850;4.504;2023-04-16T12:56:27;13.23;;;11.10;;
10191;SDS011;17580;50.850;4.504;2023-04-16T12:58:54;17.47;;;11.70;;
10191;SDS011;17580;50.850;4.504;2023-04-16T13:01:21;12.30;;;10.40;;
10191;SDS011;17580;50.850;4.504;2023-04-16T13:03:48;17.10;;;10.47;;
10191;SDS011;17580;50.850;4.504;2023-04-16T13:06:17;13.17;;;9.03;;
10191;SDS011;17580;50.850;4.504;2023-04-16T13:08:45;11.00;;;8.83;;
10191;SDS011;17580;50.850;4.504;2023-04-16T13:11:12;10.30;;;8.07;;
10191;SDS011;17580;50.850;4.504;2023-04-16T13:13:39;11.70;;;7.67;;
10191;SDS011;17580;50.850;4.504;2023-04-16T13:16:06;19.40;;;9.60;;
10191;SDS011;17580;50.850;4.504;2023-04-16T13:18:34;12.73;;;7.57;;
10191;SDS011;17580;50.850;4.504;2023-04-16T13:21:02;13.43;;;9.80;;
10191;SDS011;17580;50.850;4.504;2023-04-16T13:23:30;12.47;;;8.97;;
10191;SDS011;17580;50.850;4.504;2023-04-16T13:25:57;15.03;;;9.73;;
10191;SDS011;17580;50.850;4.504;2023-04-16T13:28:24;16.27;;;9.80;;
10191;SDS011;17580;50.850;4.504;2023-04-16T13:30:51;17.60;;;10.00;;
10191;SDS011;17580;50.850;4.504;2023-04-16T13:33:18;16.40;;;11.97;;
10191;SDS011;17580;50.850;4.504;2023-04-16T13:35:46;15.50;;;11.87;;
10191;SDS011;17580;50.850;4.504;2023-04-16T13:38:14;25.37;;;12.67;;
10191;SDS011;17580;50.850;4.504;2023-04-16T13:40:43;26.53;;;12.20;;
10191;SDS011;17580;50.850;4.504;2023-04-16T13:43:10;14.93;;;10.43;;
10191;SDS011;17580;50.850;4.504;2023-04-16T13:45:40;18.23;;;10.67;;
10191;SDS011;17580;50.850;4.504;2023-04-16T13:48:07;16.53;;;11.87;;
10191;SDS011;17580;50.850;4.504;2023-04-16T13:50:35;14.30;;;10.93;;
10191;SDS011;17580;50.850;4.504;2023-04-16T13:53:02;15.50;;;12.07;;
10191;SDS011;17580;50.850;4.504;2023-04-16T13:55:29;15.10;;;10.83;;
10191;SDS011;17580;50.850;4.504;2023-04-16T13:57:58;12.77;;;10.70;;
10191;SDS011;17580;50.850;4.504;2023-04-16T14:00:25;30.00;;;11.37;;
10191;SDS011;17580;50.850;4.504;2023-04-16T14:02:52;13.43;;;11.30;;
10191;SDS011;17580;50.850;4.504;2023-04-16T14:05:19;20.00;;;10.83;;
10191;SDS011;17580;50.850;4.504;2023-04-16T14:07:47;23.93;;;10.40;;
10191;SDS011;17580;50.850;4.504;2023-04-16T14:10:14;14.90;;;10.60;;
10191;SDS011;17580;50.850;4.504;2023-04-16T14:12:41;13.03;;;10.73;;
10191;SDS011;17580;50.850;4.504;2023-04-16T14:15:10;14.73;;;10.47;;
10191;SDS011;17580;50.850;4.504;2023-04-16T14:17:39;14.63;;;10.90;;
10191;SDS011;17580;50.850;4.504;2023-04-16T14:20:07;14.87;;;11.53;;
10191;SDS011;17580;50.850;4.504;2023-04-16T14:22:35;19.93;;;11.93;;
10191;SDS011;17580;50.850;4.504;2023-04-16T14:25:02;13.20;;;10.03;;
10191;SDS011;17580;50.850;4.504;2023-04-16T14:27:30;14.40;;;11.20;;
10191;SDS011;17580;50.850;4.504;2023-04-16T14:29:58;16.23;;;10.70;;
10191;SDS011;17580;50.850;4.504;2023-04-16T14:32:26;16.40;;;12.27;;
10191;SDS011;17580;50.850;4.504;2023-04-16T14:34:54;11.70;;;9.50;;
10191;SDS011;17580;50.850;4.504;2023-04-16T14:37:21;15.60;;;10.97;;
10191;SDS011;17580;50.850;4.504;2023-04-16T14:39:48;17.00;;;11.60;;
10191;SDS011;17580;50.850;4.504;2023-04-16T14:42:15;12.77;;;11.47;;
10191;SDS011;17580;50.850;4.504;2023-04-16T14:44:42;12.53;;;9.97;;
10191;SDS011;17580;50.850;4.504;2023-04-16T14:47:09;14.57;;;13.07;;